Time,TemperatureF,DewpointF,PressureIn,WindDirection,WindDirectionDegrees,WindSpeedMPH,WindSpeedGustMPH,Humidity,HourlyPrecipIn,Conditions,Clouds,dailyrainin,SoftwareType,DateUTC
2013-01-24 00:01:00,21.6,13.3,29.88,SSW,203,0.4,1.3,70,0.00,,,0.00,WUHU216HW,2013-01-24 07:01:00,
2013-01-24 00:06:00,21.6,13.3,29.87,SSW,203,0.0,1.3,70,0.00,,,0.00,WUHU216HW,2013-01-24 07:06:00,
2013-01-24 00:11:00,21.4,13.1,29.87,ENE,68,0.4,0.4,70,0.00,,,0.00,WUHU216HW,2013-01-24 07:11:00,
2013-01-24 00:16:00,21.4,13.1,29.87,SSE,158,0.4,0.4,70,0.00,,,0.00,WUHU216HW,2013-01-24 07:16:00,
2013-01-24 00:21:00,21.2,13.0,29.87,SSE,158,1.1,1.6,70,0.00,,,0.00,WUHU216HW,2013-01-24 07:21:00,
2013-01-24 00:26:00,21.2,13.0,29.87,SSW,203,0.4,1.6,70,0.00,,,0.00,WUHU216HW,2013-01-24 07:26:00,
2013-01-24 00:31:00,21.2,13.0,29.87,SSW,203,0.4,1.1,70,0.00,,,0.00,WUHU216HW,2013-01-24 07:31:00,
2013-01-24 00:36:00,21.2,13.2,29.87,WSW,248,2.0,2.0,71,0.00,,,0.00,WUHU216HW,2013-01-24 07:36:00,
2013-01-24 00:41:00,21.2,13.2,29.86,SW,225,2.7,2.7,71,0.00,,,0.00,WUHU216HW,2013-01-24 07:41:00,
2013-01-24 00:46:00,21.2,13.6,29.83,ESE,113,1.1,6.3,72,0.00,,,0.00,WUHU216HW,2013-01-24 07:46:00,
2013-01-24 00:51:00,21.4,13.8,29.85,WNW,293,1.1,6.3,72,0.00,,,0.00,WUHU216HW,2013-01-24 07:51:00,
2013-01-24 00:56:00,21.6,14.0,29.85,WSW,248,1.8,4.9,72,0.00,,,0.00,WUHU216HW,2013-01-24 07:56:00,
2013-01-24 01:01:00,21.8,14.1,29.85,SSE,158,0.4,4.7,72,0.00,,,0.00,WUHU216HW,2013-01-24 08:01:00,
2013-01-24 01:06:00,22.0,14.3,29.85,NE,45,0.4,2.2,72,0.00,,,0.00,WUHU216HW,2013-01-24 08:06:00,
2013-01-24 01:11:00,22.1,14.5,29.85,SSE,158,1.1,3.6,72,0.00,,,0.00,WUHU216HW,2013-01-24 08:11:00,
2013-01-24 01:16:00,22.3,14.7,29.85,SE,135,1.8,3.6,72,0.00,,,0.00,WUHU216HW,2013-01-24 08:16:00,
2013-01-24 01:21:00,22.3,14.7,29.85,South,180,2.0,5.4,72,0.00,,,0.00,WUHU216HW,2013-01-24 08:21:00,
2013-01-24 01:26:00,22.5,14.9,29.85,South,180,4.0,5.4,72,0.00,,,0.00,WUHU216HW,2013-01-24 08:26:00,
2013-01-24 01:31:00,22.7,15.0,29.85,South,180,2.2,4.0,72,0.00,,,0.00,WUHU216HW,2013-01-24 08:31:00,
2013-01-24 01:36:00,22.7,15.0,29.84,South,180,1.8,4.9,72,0.00,,,0.00,WUHU216HW,2013-01-24 08:36:00,
2013-01-24 01:41:00,22.7,15.0,29.84,SSE,158,2.5,4.9,72,0.00,,,0.00,WUHU216HW,2013-01-24 08:41:00,
2013-01-24 01:46:00,22.7,14.7,29.84,SSE,158,3.6,3.6,71,0.00,,,0.00,WUHU216HW,2013-01-24 08:46:00,
2013-01-24 01:51:00,22.5,14.5,29.84,SSE,158,4.7,5.8,71,0.00,,,0.00,WUHU216HW,2013-01-24 08:51:00,
2013-01-24 01:56:00,22.5,14.5,29.83,SSE,158,1.8,5.8,71,0.00,,,0.00,WUHU216HW,2013-01-24 08:56:00,
2013-01-24 02:01:00,22.3,14.3,29.83,SSE,158,3.8,4.7,71,0.00,,,0.00,WUHU216HW,2013-01-24 09:01:00,
2013-01-24 02:06:00,22.3,14.3,29.83,SE,135,2.5,4.9,71,0.00,,,0.00,WUHU216HW,2013-01-24 09:06:00,
2013-01-24 02:11:00,22.3,14.3,29.83,ESE,113,0.7,4.9,71,0.00,,,0.00,WUHU216HW,2013-01-24 09:11:00,
2013-01-24 02:16:00,22.3,14.7,29.83,NE,45,1.1,1.8,72,0.00,,,0.00,WUHU216HW,2013-01-24 09:16:00,
2013-01-24 02:21:00,22.3,14.7,29.83,SE,135,2.7,2.7,72,0.00,,,0.00,WUHU216HW,2013-01-24 09:21:00,
2013-01-24 02:26:00,22.3,14.7,29.83,South,180,1.6,3.6,72,0.00,,,0.00,WUHU216HW,2013-01-24 09:26:00,
2013-01-24 02:31:00,22.1,14.5,29.83,SSE,158,0.4,3.6,72,0.00,,,0.00,WUHU216HW,2013-01-24 09:31:00,
2013-01-24 02:36:00,22.3,14.7,29.83,WNW,293,2.0,3.6,72,0.00,,,0.00,WUHU216HW,2013-01-24 09:36:00,
2013-01-24 02:41:00,21.6,14.0,29.83,NNE,23,2.5,4.0,72,0.00,,,0.00,WUHU216HW,2013-01-24 09:41:00,
2013-01-24 02:46:00,21.4,13.8,29.83,NE,45,0.7,4.0,72,0.00,,,0.00,WUHU216HW,2013-01-24 09:46:00,
2013-01-24 02:51:00,21.2,13.9,29.84,NNE,23,1.8,1.8,73,0.00,,,0.00,WUHU216HW,2013-01-24 09:51:00,
2013-01-24 02:56:00,21.2,13.9,29.84,North,0,0.0,1.8,73,0.00,,,0.00,WUHU216HW,2013-01-24 09:56:00,
2013-01-24 03:01:00,21.2,13.9,29.84,NE,45,1.6,1.6,73,0.00,,,0.00,WUHU216HW,2013-01-24 10:01:00,
2013-01-24 03:06:00,21.2,13.9,29.84,North,0,1.8,1.8,73,0.00,,,0.00,WUHU216HW,2013-01-24 10:06:00,
2013-01-24 03:11:00,21.2,13.9,29.83,SE,135,0.4,1.8,73,0.00,,,0.00,WUHU216HW,2013-01-24 10:11:00,
2013-01-24 03:16:00,21.2,13.9,29.84,NW,315,0.0,1.8,73,0.00,,,0.00,WUHU216HW,2013-01-24 10:16:00,
2013-01-24 03:21:00,21.2,13.9,29.84,NNE,23,0.4,1.3,73,0.00,,,0.00,WUHU216HW,2013-01-24 10:21:00,
2013-01-24 03:26:00,21.2,13.9,29.83,SW,225,0.0,1.3,73,0.00,,,0.00,WUHU216HW,2013-01-24 10:26:00,
2013-01-24 03:31:00,21.2,13.9,29.83,SW,225,0.0,0.4,73,0.00,,,0.00,WUHU216HW,2013-01-24 10:31:00,
2013-01-24 03:36:00,21.1,13.7,29.83,ENE,68,0.7,0.9,73,0.00,,,0.00,WUHU216HW,2013-01-24 10:36:00,
2013-01-24 03:41:00,21.1,13.7,29.83,NNW,338,0.9,1.8,73,0.00,,,0.00,WUHU216HW,2013-01-24 10:41:00,
2013-01-24 03:46:00,20.9,13.5,29.83,SSE,158,0.0,1.8,73,0.00,,,0.00,WUHU216HW,2013-01-24 10:46:00,
2013-01-24 03:51:00,20.9,13.5,29.83,WSW,248,0.0,0.9,73,0.00,,,0.00,WUHU216HW,2013-01-24 10:51:00,
2013-01-24 03:56:00,20.7,13.3,29.83,NNW,338,0.0,0.9,73,0.00,,,0.00,WUHU216HW,2013-01-24 10:56:00,
2013-01-24 04:01:00,20.7,13.3,29.83,SSW,203,0.0,1.3,73,0.00,,,0.00,WUHU216HW,2013-01-24 11:01:00,
2013-01-24 04:06:00,20.5,13.1,29.82,SSE,158,1.3,2.0,73,0.00,,,0.00,WUHU216HW,2013-01-24 11:06:00,
2013-01-24 04:11:00,20.5,13.5,29.82,NE,45,4.0,4.0,74,0.00,,,0.00,WUHU216HW,2013-01-24 11:11:00,
2013-01-24 04:16:00,20.3,13.6,29.84,NNE,23,4.7,4.7,75,0.00,,,0.00,WUHU216HW,2013-01-24 11:16:00,
2013-01-24 04:21:00,20.2,13.2,29.84,NNW,338,1.8,4.7,74,0.00,,,0.00,WUHU216HW,2013-01-24 11:21:00,
2013-01-24 04:26:00,20.2,13.2,29.83,West,270,2.0,2.9,74,0.00,,,0.00,WUHU216HW,2013-01-24 11:26:00,
2013-01-24 04:31:00,20.2,13.4,29.83,West,270,2.9,2.9,75,0.00,,,0.00,WUHU216HW,2013-01-24 11:31:00,
2013-01-24 04:36:00,20.2,13.4,29.82,SW,225,3.4,3.4,75,0.00,,,0.00,WUHU216HW,2013-01-24 11:36:00,
2013-01-24 04:41:00,20.5,13.5,29.82,WSW,248,4.3,4.3,74,0.00,,,0.00,WUHU216HW,2013-01-24 11:41:00,
2013-01-24 04:46:00,22.0,15.5,29.81,SW,225,3.4,10.7,76,0.00,,,0.00,WUHU216HW,2013-01-24 11:46:00,
2013-01-24 04:51:00,23.8,17.0,29.81,SSW,203,3.1,10.7,75,0.00,,,0.00,WUHU216HW,2013-01-24 11:51:00,
2013-01-24 04:56:00,24.3,16.8,29.82,NE,45,2.7,6.9,73,0.00,,,0.00,WUHU216HW,2013-01-24 11:56:00,
2013-01-24 05:01:00,24.3,16.6,29.82,North,0,1.1,4.7,72,0.00,,,0.00,WUHU216HW,2013-01-24 12:01:00,
2013-01-24 05:06:00,23.9,15.9,29.82,WSW,248,2.5,4.7,71,0.00,,,0.00,WUHU216HW,2013-01-24 12:06:00,
2013-01-24 05:11:00,23.8,15.8,29.82,SW,225,1.8,3.8,71,0.00,,,0.00,WUHU216HW,2013-01-24 12:11:00,
2013-01-24 05:16:00,23.6,15.6,29.82,South,180,2.7,3.8,71,0.00,,,0.00,WUHU216HW,2013-01-24 12:16:00,
2013-01-24 05:21:00,23.6,15.6,29.82,SW,225,1.3,3.1,71,0.00,,,0.00,WUHU216HW,2013-01-24 12:21:00,
2013-01-24 05:26:00,23.8,15.8,29.82,South,180,2.5,3.1,71,0.00,,,0.00,WUHU216HW,2013-01-24 12:26:00,
2013-01-24 05:31:00,24.1,16.0,29.82,SW,225,1.1,2.7,71,0.00,,,0.00,WUHU216HW,2013-01-24 12:31:00,
2013-01-24 05:36:00,24.1,16.0,29.82,WSW,248,1.8,2.5,71,0.00,,,0.00,WUHU216HW,2013-01-24 12:36:00,
2013-01-24 05:41:00,24.3,15.9,29.82,SW,225,1.8,2.5,70,0.00,,,0.00,WUHU216HW,2013-01-24 12:41:00,
2013-01-24 05:46:00,24.5,16.0,29.82,SW,225,2.2,2.2,70,0.00,,,0.00,WUHU216HW,2013-01-24 12:46:00,
2013-01-24 05:51:00,24.7,16.2,29.82,SW,225,1.1,3.1,70,0.00,,,0.00,WUHU216HW,2013-01-24 12:51:00,
2013-01-24 05:56:00,24.8,16.8,29.83,West,270,0.7,3.1,71,0.00,,,0.00,WUHU216HW,2013-01-24 12:56:00,
2013-01-24 06:01:00,25.4,16.9,29.83,North,0,1.1,1.8,70,0.00,,,0.00,WUHU216HW,2013-01-24 13:01:00,
2013-01-24 06:06:00,25.6,17.1,29.84,WSW,248,0.4,1.8,70,0.00,,,0.00,WUHU216HW,2013-01-24 13:06:00,
2013-01-24 06:11:00,25.6,17.1,29.84,South,180,1.8,1.8,70,0.00,,,0.00,WUHU216HW,2013-01-24 13:11:00,
2013-01-24 06:16:00,25.4,16.9,29.84,SSW,203,4.7,4.7,70,0.00,,,0.00,WUHU216HW,2013-01-24 13:16:00,
2013-01-24 06:21:00,25.6,17.1,29.84,SSW,203,3.4,5.1,70,0.00,,,0.00,WUHU216HW,2013-01-24 13:21:00,
2013-01-24 06:26:00,25.6,17.1,29.84,SSW,203,0.7,5.1,70,0.00,,,0.00,WUHU216HW,2013-01-24 13:26:00,
2013-01-24 06:31:00,25.7,16.9,29.84,North,0,1.1,2.9,69,0.00,,,0.00,WUHU216HW,2013-01-24 13:31:00,
2013-01-24 06:36:00,25.7,16.9,29.84,South,180,1.1,1.8,69,0.00,,,0.00,WUHU216HW,2013-01-24 13:36:00,
2013-01-24 06:41:00,25.6,16.7,29.84,SE,135,0.9,1.3,69,0.00,,,0.00,WUHU216HW,2013-01-24 13:41:00,
2013-01-24 06:46:00,25.6,16.7,29.85,ESE,113,0.2,1.8,69,0.00,,,0.00,WUHU216HW,2013-01-24 13:46:00,
2013-01-24 06:51:00,25.4,16.6,29.85,South,180,1.8,1.8,69,0.00,,,0.00,WUHU216HW,2013-01-24 13:51:00,
2013-01-24 06:56:00,25.0,16.2,29.85,SSE,158,2.0,3.4,69,0.00,,,0.00,WUHU216HW,2013-01-24 13:56:00,
2013-01-24 07:01:00,25.0,16.2,29.84,South,180,4.0,4.0,69,0.00,,,0.00,WUHU216HW,2013-01-24 14:01:00,
2013-01-24 07:06:00,25.0,16.2,29.84,SSW,203,2.5,4.0,69,0.00,,,0.00,WUHU216HW,2013-01-24 14:06:00,
2013-01-24 07:11:00,25.2,16.7,29.84,South,180,1.8,3.6,70,0.00,,,0.00,WUHU216HW,2013-01-24 14:11:00,
2013-01-24 07:16:00,25.7,17.3,29.84,South,180,2.2,4.0,70,0.00,,,0.00,WUHU216HW,2013-01-24 14:16:00,
2013-01-24 07:21:00,26.3,17.5,29.84,SSW,203,5.6,5.6,69,0.00,,,0.00,WUHU216HW,2013-01-24 14:21:00,
2013-01-24 07:26:00,26.8,18.0,29.84,South,180,3.4,5.6,69,0.00,,,0.00,WUHU216HW,2013-01-24 14:26:00,
2013-01-24 07:31:00,27.2,18.0,29.84,South,180,2.5,3.6,68,0.00,,,0.00,WUHU216HW,2013-01-24 14:31:00,
2013-01-24 07:36:00,27.7,18.5,29.84,SSE,158,4.3,4.5,68,0.00,,,0.00,WUHU216HW,2013-01-24 14:36:00,
2013-01-24 07:41:00,28.1,18.5,29.84,SSW,203,1.1,4.5,67,0.00,,,0.00,WUHU216HW,2013-01-24 14:41:00,
2013-01-24 07:46:00,28.4,18.5,29.84,WSW,248,2.5,3.8,66,0.00,,,0.00,WUHU216HW,2013-01-24 14:46:00,
2013-01-24 07:51:00,28.8,18.9,29.84,WSW,248,6.7,6.7,66,0.00,,,0.00,WUHU216HW,2013-01-24 14:51:00,
2013-01-24 07:56:00,29.5,19.5,29.84,South,180,2.5,6.7,66,0.00,,,0.00,WUHU216HW,2013-01-24 14:56:00,
2013-01-24 08:01:00,30.1,19.6,29.84,SSW,203,2.9,4.3,65,0.00,,,0.00,WUHU216HW,2013-01-24 15:01:00,
2013-01-24 08:06:00,30.6,20.2,29.84,SSW,203,1.8,4.9,65,0.00,,,0.00,WUHU216HW,2013-01-24 15:06:00,
2013-01-24 08:11:00,31.3,20.5,29.84,South,180,2.2,4.9,64,0.00,,,0.00,WUHU216HW,2013-01-24 15:11:00,
2013-01-24 08:16:00,32.0,20.9,29.84,SSW,203,1.8,3.4,63,0.00,,,0.00,WUHU216HW,2013-01-24 15:16:00,
2013-01-24 08:21:00,32.8,21.2,29.84,South,180,2.2,5.6,62,0.00,,,0.00,WUHU216HW,2013-01-24 15:21:00,
2013-01-24 08:26:00,33.1,21.5,29.84,SSE,158,1.8,5.6,62,0.00,,,0.00,WUHU216HW,2013-01-24 15:26:00,
2013-01-24 08:31:00,33.5,21.4,29.85,SSW,203,1.3,4.0,61,0.00,,,0.00,WUHU216HW,2013-01-24 15:31:00,
2013-01-24 08:36:00,33.8,21.4,29.85,South,180,3.4,3.4,60,0.00,,,0.00,WUHU216HW,2013-01-24 15:36:00,
2013-01-24 08:41:00,34.2,21.3,29.85,SSW,203,1.6,3.4,59,0.00,,,0.00,WUHU216HW,2013-01-24 15:41:00,
2013-01-24 08:46:00,34.6,21.7,29.85,SW,225,0.9,3.4,59,0.00,,,0.00,WUHU216HW,2013-01-24 15:46:00,
2013-01-24 08:51:00,34.9,21.6,29.85,SW,225,2.9,3.8,58,0.00,,,0.00,WUHU216HW,2013-01-24 15:51:00,
2013-01-24 08:56:00,35.1,22.2,29.85,South,180,2.2,3.8,59,0.00,,,0.00,WUHU216HW,2013-01-24 15:56:00,
2013-01-24 09:01:00,35.5,22.6,29.85,South,180,1.8,2.9,59,0.00,,,0.00,WUHU216HW,2013-01-24 16:01:00,
2013-01-24 09:06:00,35.8,22.5,29.85,South,180,0.9,2.9,58,0.00,,,0.00,WUHU216HW,2013-01-24 16:06:00,
2013-01-24 09:11:00,36.2,22.9,29.85,South,180,2.0,3.4,58,0.00,,,0.00,WUHU216HW,2013-01-24 16:11:00,
2013-01-24 09:16:00,36.4,22.6,29.85,SSE,158,0.9,3.4,57,0.00,,,0.00,WUHU216HW,2013-01-24 16:16:00,
2013-01-24 09:21:00,36.7,22.9,29.86,South,180,2.2,2.5,57,0.00,,,0.00,WUHU216HW,2013-01-24 16:21:00,
2013-01-24 09:26:00,37.1,23.2,29.85,SW,225,1.1,3.1,57,0.00,,,0.00,WUHU216HW,2013-01-24 16:26:00,
2013-01-24 09:31:00,37.6,23.3,29.85,SW,225,0.2,3.1,56,0.00,,,0.00,WUHU216HW,2013-01-24 16:31:00,
2013-01-24 09:36:00,38.2,23.8,29.86,NNE,23,2.9,4.3,56,0.00,,,0.00,WUHU216HW,2013-01-24 16:36:00,
2013-01-24 09:41:00,38.5,23.7,29.86,NE,45,4.7,5.4,55,0.00,,,0.00,WUHU216HW,2013-01-24 16:41:00,
2013-01-24 09:46:00,38.7,23.9,29.87,SW,225,1.8,5.4,55,0.00,,,0.00,WUHU216HW,2013-01-24 16:46:00,
2013-01-24 09:51:00,38.9,23.9,29.87,SSE,158,2.5,3.8,55,0.00,,,0.00,WUHU216HW,2013-01-24 16:51:00,
2013-01-24 09:56:00,39.2,24.3,29.87,SSE,158,1.1,2.9,55,0.00,,,0.00,WUHU216HW,2013-01-24 16:56:00,
2013-01-24 10:01:00,39.4,24.5,29.86,SSE,158,0.2,2.9,55,0.00,,,0.00,WUHU216HW,2013-01-24 17:01:00,
2013-01-24 10:06:00,40.0,25.0,29.86,SW,225,2.7,2.7,55,0.00,,,0.00,WUHU216HW,2013-01-24 17:06:00,
2013-01-24 10:11:00,40.5,25.0,29.87,NE,45,1.8,2.7,54,0.00,,,0.00,WUHU216HW,2013-01-24 17:11:00,
2013-01-24 10:16:00,41.0,25.6,29.87,NNE,23,2.9,3.4,54,0.00,,,0.00,WUHU216HW,2013-01-24 17:16:00,
2013-01-24 10:21:00,41.6,25.7,29.87,NNE,23,0.0,3.4,53,0.00,,,0.00,WUHU216HW,2013-01-24 17:21:00,
2013-01-24 10:26:00,42.1,25.8,29.87,ESE,113,0.4,1.8,52,0.00,,,0.00,WUHU216HW,2013-01-24 17:26:00,
2013-01-24 10:31:00,42.7,26.6,29.87,ESE,113,1.8,3.4,53,0.00,,,0.00,WUHU216HW,2013-01-24 17:31:00,
2013-01-24 10:36:00,43.0,27.0,29.87,South,180,0.0,3.4,53,0.00,,,0.00,WUHU216HW,2013-01-24 17:36:00,
2013-01-24 10:41:00,43.6,27.1,29.88,ESE,113,1.3,1.8,52,0.00,,,0.00,WUHU216HW,2013-01-24 17:41:00,
2013-01-24 10:46:00,44.3,27.7,29.88,NNE,23,0.0,1.8,52,0.00,,,0.00,WUHU216HW,2013-01-24 17:46:00,
2013-01-24 10:51:00,44.6,27.6,29.87,NW,315,1.1,2.0,51,0.00,,,0.00,WUHU216HW,2013-01-24 17:51:00,
2013-01-24 10:56:00,45.2,27.6,29.88,ESE,113,0.9,2.2,50,0.00,,,0.00,WUHU216HW,2013-01-24 17:56:00,
2013-01-24 11:01:00,45.5,28.0,29.88,SSE,158,0.9,2.2,50,0.00,,,0.00,WUHU216HW,2013-01-24 18:01:00,
2013-01-24 11:06:00,45.9,28.4,29.88,SE,135,1.6,3.1,50,0.00,,,0.00,WUHU216HW,2013-01-24 18:06:00,
2013-01-24 11:11:00,46.3,28.1,29.88,East,90,0.9,3.1,49,0.00,,,0.00,WUHU216HW,2013-01-24 18:11:00,
2013-01-24 11:16:00,46.6,28.5,29.89,SE,135,1.1,2.0,49,0.00,,,0.00,WUHU216HW,2013-01-24 18:16:00,
2013-01-24 11:21:00,46.8,28.6,29.88,SSE,158,2.5,3.1,49,0.00,,,0.00,WUHU216HW,2013-01-24 18:21:00,
2013-01-24 11:26:00,47.2,28.9,29.88,SE,135,1.1,3.6,49,0.00,,,0.00,WUHU216HW,2013-01-24 18:26:00,
2013-01-24 11:31:00,47.3,28.5,29.88,SW,225,0.4,3.6,48,0.00,,,0.00,WUHU216HW,2013-01-24 18:31:00,
2013-01-24 11:36:00,47.5,28.7,29.89,NNE,23,0.7,3.4,48,0.00,,,0.00,WUHU216HW,2013-01-24 18:36:00,
2013-01-24 11:41:00,47.7,28.9,29.89,NE,45,2.7,2.7,48,0.00,,,0.00,WUHU216HW,2013-01-24 18:41:00,
2013-01-24 11:46:00,47.9,29.0,29.89,NNW,338,0.0,2.7,48,0.00,,,0.00,WUHU216HW,2013-01-24 18:46:00,
2013-01-24 11:51:00,47.9,29.0,29.89,South,180,0.4,2.2,48,0.00,,,0.00,WUHU216HW,2013-01-24 18:51:00,
2013-01-24 11:56:00,48.2,26.6,29.89,West,270,9.4,9.4,43,0.00,,,0.00,WUHU216HW,2013-01-24 18:56:00,
2013-01-24 12:01:00,49.3,27.6,29.89,WSW,248,12.8,14.5,43,0.00,,,0.00,WUHU216HW,2013-01-24 19:01:00,
2013-01-24 12:06:00,50.8,28.5,29.89,West,270,12.8,17.7,42,0.00,,,0.00,WUHU216HW,2013-01-24 19:06:00,
2013-01-24 12:11:00,51.5,28.5,29.89,WNW,293,16.8,17.7,41,0.00,,,0.00,WUHU216HW,2013-01-24 19:11:00,
2013-01-24 12:16:00,52.0,28.5,29.89,WSW,248,13.9,17.2,40,0.00,,,0.00,WUHU216HW,2013-01-24 19:16:00,
2013-01-24 12:21:00,52.6,28.3,29.89,West,270,12.8,17.2,39,0.00,,,0.00,WUHU216HW,2013-01-24 19:21:00,
2013-01-24 12:26:00,52.6,28.3,29.89,West,270,15.9,15.9,39,0.00,,,0.00,WUHU216HW,2013-01-24 19:26:00,
2013-01-24 12:31:00,52.7,27.7,29.90,WNW,293,16.8,16.8,38,0.00,,,0.00,WUHU216HW,2013-01-24 19:31:00,
2013-01-24 12:36:00,52.7,27.7,29.89,West,270,10.1,20.1,38,0.00,,,0.00,WUHU216HW,2013-01-24 19:36:00,
2013-01-24 12:41:00,52.9,27.9,29.89,NW,315,4.7,20.1,38,0.00,,,0.00,WUHU216HW,2013-01-24 19:41:00,
2013-01-24 12:46:00,52.9,27.9,29.90,WNW,293,6.7,9.2,38,0.00,,,0.00,WUHU216HW,2013-01-24 19:46:00,
2013-01-24 12:51:00,52.9,27.9,29.90,NW,315,9.2,11.0,38,0.00,,,0.00,WUHU216HW,2013-01-24 19:51:00,
2013-01-24 12:56:00,52.2,27.9,29.90,NW,315,7.8,11.0,39,0.00,,,0.00,WUHU216HW,2013-01-24 19:56:00,
2013-01-24 13:01:00,52.0,28.5,29.90,NNW,338,7.8,8.9,40,0.00,,,0.00,WUHU216HW,2013-01-24 20:01:00,
2013-01-24 13:06:00,52.4,28.1,29.89,NNW,338,9.2,9.2,39,0.00,,,0.00,WUHU216HW,2013-01-24 20:06:00,
2013-01-24 13:11:00,52.9,28.5,29.90,NW,315,12.3,13.0,39,0.00,,,0.00,WUHU216HW,2013-01-24 20:11:00,
2013-01-24 13:16:00,52.9,27.9,29.90,NNW,338,8.1,13.0,38,0.00,,,0.00,WUHU216HW,2013-01-24 20:16:00,
2013-01-24 13:21:00,52.6,27.5,29.90,WSW,248,4.0,10.5,38,0.00,,,0.00,WUHU216HW,2013-01-24 20:21:00,
2013-01-24 13:26:00,52.4,27.4,29.90,West,270,6.3,12.5,38,0.00,,,0.00,WUHU216HW,2013-01-24 20:26:00,
2013-01-24 13:31:00,52.2,27.2,29.90,North,0,7.2,12.5,38,0.00,,,0.00,WUHU216HW,2013-01-24 20:31:00,
2013-01-24 13:36:00,52.0,27.1,29.90,NW,315,11.4,11.4,38,0.00,,,0.00,WUHU216HW,2013-01-24 20:36:00,
2013-01-24 13:41:00,52.4,27.4,29.90,West,270,9.8,11.4,38,0.00,,,0.00,WUHU216HW,2013-01-24 20:41:00,
2013-01-24 13:46:00,52.9,27.9,29.90,WNW,293,6.9,10.5,38,0.00,,,0.00,WUHU216HW,2013-01-24 20:46:00,
2013-01-24 13:51:00,53.1,28.0,29.90,West,270,11.4,11.4,38,0.00,,,0.00,WUHU216HW,2013-01-24 20:51:00,
2013-01-24 13:56:00,53.5,27.6,29.90,West,270,9.8,11.4,37,0.00,,,0.00,WUHU216HW,2013-01-24 20:56:00,
2013-01-24 14:01:00,53.3,27.6,29.90,NNW,338,4.7,9.8,37,0.00,,,0.00,WUHU216HW,2013-01-24 21:01:00,
2013-01-24 14:06:00,53.3,27.6,29.90,NW,315,7.4,8.5,37,0.00,,,0.00,WUHU216HW,2013-01-24 21:06:00,
2013-01-24 14:11:00,53.6,27.8,29.90,NNW,338,4.9,10.3,37,0.00,,,0.00,WUHU216HW,2013-01-24 21:11:00,
2013-01-24 14:16:00,53.6,27.8,29.90,WSW,248,9.6,10.3,37,0.00,,,0.00,WUHU216HW,2013-01-24 21:16:00,
2013-01-24 14:21:00,53.8,27.3,29.91,WNW,293,5.6,9.6,36,0.00,,,0.00,WUHU216HW,2013-01-24 21:21:00,
2013-01-24 14:26:00,53.6,27.2,29.91,NW,315,6.9,8.3,36,0.00,,,0.00,WUHU216HW,2013-01-24 21:26:00,
2013-01-24 14:31:00,53.6,27.2,29.91,NNW,338,6.9,9.8,36,0.00,,,0.00,WUHU216HW,2013-01-24 21:31:00,
2013-01-24 14:36:00,53.6,27.2,29.91,NW,315,7.6,9.8,36,0.00,,,0.00,WUHU216HW,2013-01-24 21:36:00,
2013-01-24 14:41:00,53.8,28.0,29.91,NW,315,4.0,9.2,37,0.00,,,0.00,WUHU216HW,2013-01-24 21:41:00,
2013-01-24 14:46:00,53.8,26.7,29.91,North,0,7.8,9.4,35,0.00,,,0.00,WUHU216HW,2013-01-24 21:46:00,
2013-01-24 14:51:00,53.6,27.2,29.92,WSW,248,5.4,9.4,36,0.00,,,0.00,WUHU216HW,2013-01-24 21:51:00,
2013-01-24 14:56:00,53.6,27.2,29.92,NW,315,7.8,7.8,36,0.00,,,0.00,WUHU216HW,2013-01-24 21:56:00,
2013-01-24 15:01:00,53.6,26.5,29.92,NW,315,7.8,8.7,35,0.00,,,0.00,WUHU216HW,2013-01-24 22:01:00,
2013-01-24 15:06:00,53.5,26.3,29.93,NW,315,7.6,8.9,35,0.00,,,0.00,WUHU216HW,2013-01-24 22:06:00,
2013-01-24 15:11:00,53.3,26.8,29.93,NNW,338,3.6,11.2,36,0.00,,,0.00,WUHU216HW,2013-01-24 22:11:00,
2013-01-24 15:16:00,53.1,25.3,29.93,NW,315,5.4,11.2,34,0.00,,,0.00,WUHU216HW,2013-01-24 22:16:00,
2013-01-24 15:21:00,52.7,26.4,29.94,NW,315,5.1,11.2,36,0.00,,,0.00,WUHU216HW,2013-01-24 22:21:00,
2013-01-24 15:26:00,52.6,26.2,29.93,NNW,338,4.7,11.2,36,0.00,,,0.00,WUHU216HW,2013-01-24 22:26:00,
2013-01-24 15:31:00,52.4,26.0,29.93,NNW,338,9.4,11.9,36,0.00,,,0.00,WUHU216HW,2013-01-24 22:31:00,
2013-01-24 15:36:00,52.2,25.8,29.93,NW,315,4.5,11.9,36,0.00,,,0.00,WUHU216HW,2013-01-24 22:36:00,
2013-01-24 15:41:00,52.0,25.7,29.94,NW,315,6.9,8.9,36,0.00,,,0.00,WUHU216HW,2013-01-24 22:41:00,
2013-01-24 15:46:00,51.8,26.2,29.94,NNW,338,5.4,9.2,37,0.00,,,0.00,WUHU216HW,2013-01-24 22:46:00,
2013-01-24 15:51:00,51.7,26.0,29.94,NNW,338,8.7,9.4,37,0.00,,,0.00,WUHU216HW,2013-01-24 22:51:00,
2013-01-24 15:56:00,51.5,25.9,29.94,NNW,338,6.9,9.8,37,0.00,,,0.00,WUHU216HW,2013-01-24 22:56:00,
2013-01-24 16:01:00,51.3,25.8,29.94,NNW,338,5.6,9.8,37,0.00,,,0.00,WUHU216HW,2013-01-24 23:01:00,
2013-01-24 16:06:00,51.1,25.6,29.95,WNW,293,3.6,8.3,37,0.00,,,0.00,WUHU216HW,2013-01-24 23:06:00,
2013-01-24 16:11:00,50.8,25.9,29.95,WNW,293,4.7,8.5,38,0.00,,,0.00,WUHU216HW,2013-01-24 23:11:00,
2013-01-24 16:16:00,50.4,25.6,29.95,North,0,5.4,8.9,38,0.00,,,0.00,WUHU216HW,2013-01-24 23:16:00,
2013-01-24 16:21:00,50.2,25.5,29.95,WNW,293,6.3,8.9,38,0.00,,,0.00,WUHU216HW,2013-01-24 23:21:00,
2013-01-24 16:26:00,50.0,25.3,29.95,NNW,338,9.6,9.6,38,0.00,,,0.00,WUHU216HW,2013-01-24 23:26:00,
2013-01-24 16:31:00,49.7,24.9,29.95,WNW,293,7.6,9.6,38,0.00,,,0.00,WUHU216HW,2013-01-24 23:31:00,
2013-01-24 16:36:00,49.3,24.7,29.96,NNW,338,4.9,10.7,38,0.00,,,0.00,WUHU216HW,2013-01-24 23:36:00,
2013-01-24 16:41:00,49.1,24.5,29.96,WNW,293,3.4,10.7,38,0.00,,,0.00,WUHU216HW,2013-01-24 23:41:00,
2013-01-24 16:46:00,48.6,24.0,29.96,NW,315,5.4,7.6,38,0.00,,,0.00,WUHU216HW,2013-01-24 23:46:00,
2013-01-24 16:51:00,48.2,24.4,29.96,NW,315,5.4,5.8,39,0.00,,,0.00,WUHU216HW,2013-01-24 23:51:00,
2013-01-24 16:56:00,47.9,24.0,29.96,NW,315,4.9,5.4,39,0.00,,,0.00,WUHU216HW,2013-01-24 23:56:00,
2013-01-24 17:01:00,47.3,23.6,29.96,NNE,23,5.6,5.6,39,0.00,,,0.00,WUHU216HW,2013-01-25 00:01:00,
2013-01-24 17:06:00,47.0,23.2,29.96,NW,315,3.6,5.6,39,0.00,,,0.00,WUHU216HW,2013-01-25 00:06:00,
2013-01-24 17:11:00,46.8,23.0,29.96,NNW,338,4.7,5.4,39,0.00,,,0.00,WUHU216HW,2013-01-25 00:11:00,
2013-01-24 17:16:00,46.4,23.4,29.97,NW,315,3.4,5.4,40,0.00,,,0.00,WUHU216HW,2013-01-25 00:16:00,
2013-01-24 17:21:00,46.1,23.0,29.97,NW,315,6.3,6.3,40,0.00,,,0.00,WUHU216HW,2013-01-25 00:21:00,
2013-01-24 17:26:00,45.7,22.8,29.97,WNW,293,4.9,6.9,40,0.00,,,0.00,WUHU216HW,2013-01-25 00:26:00,
2013-01-24 17:31:00,45.4,23.0,29.97,NW,315,2.5,6.9,41,0.00,,,0.00,WUHU216HW,2013-01-25 00:31:00,
2013-01-24 17:36:00,45.0,22.7,29.98,NW,315,5.8,6.3,41,0.00,,,0.00,WUHU216HW,2013-01-25 00:36:00,
2013-01-24 17:41:00,44.6,22.9,29.98,NW,315,1.6,6.3,42,0.00,,,0.00,WUHU216HW,2013-01-25 00:41:00,
2013-01-24 17:46:00,44.5,22.7,29.98,NW,315,3.8,4.5,42,0.00,,,0.00,WUHU216HW,2013-01-25 00:46:00,
2013-01-24 17:51:00,44.1,22.4,29.99,NW,315,3.6,4.9,42,0.00,,,0.00,WUHU216HW,2013-01-25 00:51:00,
2013-01-24 17:56:00,43.9,22.8,29.99,NW,315,3.8,5.6,43,0.00,,,0.00,WUHU216HW,2013-01-25 00:56:00,
2013-01-24 18:01:00,43.9,22.2,29.99,NNW,338,5.4,5.6,42,0.00,,,0.00,WUHU216HW,2013-01-25 01:01:00,
2013-01-24 18:06:00,43.7,22.1,29.99,WNW,293,4.7,5.4,42,0.00,,,0.00,WUHU216HW,2013-01-25 01:06:00,
2013-01-24 18:11:00,43.6,22.4,29.99,WNW,293,3.8,6.5,43,0.00,,,0.00,WUHU216HW,2013-01-25 01:11:00,
2013-01-24 18:16:00,43.4,22.2,30.00,NNW,338,4.7,6.5,43,0.00,,,0.00,WUHU216HW,2013-01-25 01:16:00,
2013-01-24 18:21:00,43.0,22.0,30.00,WNW,293,3.8,5.4,43,0.00,,,0.00,WUHU216HW,2013-01-25 01:21:00,
2013-01-24 18:26:00,42.8,21.8,30.00,NW,315,2.5,4.0,43,0.00,,,0.00,WUHU216HW,2013-01-25 01:26:00,
2013-01-24 18:31:00,42.7,21.6,30.01,NW,315,2.5,5.6,43,0.00,,,0.00,WUHU216HW,2013-01-25 01:31:00,
2013-01-24 18:36:00,42.5,21.4,30.01,North,0,2.2,5.6,43,0.00,,,0.00,WUHU216HW,2013-01-25 01:36:00,
2013-01-24 18:41:00,42.1,21.2,30.01,NW,315,1.1,2.2,43,0.00,,,0.00,WUHU216HW,2013-01-25 01:41:00,
2013-01-24 18:46:00,41.8,21.3,30.02,West,270,1.6,2.5,44,0.00,,,0.00,WUHU216HW,2013-01-25 01:46:00,
2013-01-24 18:51:00,41.4,21.0,30.02,WSW,248,1.6,3.1,44,0.00,,,0.00,WUHU216HW,2013-01-25 01:51:00,
2013-01-24 18:56:00,41.2,20.8,30.02,SW,225,1.8,3.1,44,0.00,,,0.00,WUHU216HW,2013-01-25 01:56:00,
2013-01-24 19:01:00,40.7,20.8,30.02,SW,225,2.0,2.2,45,0.00,,,0.00,WUHU216HW,2013-01-25 02:01:00,
2013-01-24 19:06:00,40.1,20.3,30.03,SW,225,1.6,2.2,45,0.00,,,0.00,WUHU216HW,2013-01-25 02:06:00,
2013-01-24 19:11:00,39.6,20.3,30.03,West,270,2.0,2.9,46,0.00,,,0.00,WUHU216HW,2013-01-25 02:11:00,
2013-01-24 19:16:00,39.1,19.4,30.03,WSW,248,3.1,3.1,45,0.00,,,0.00,WUHU216HW,2013-01-25 02:16:00,
2013-01-24 19:21:00,38.7,19.5,30.03,WSW,248,1.8,3.1,46,0.00,,,0.00,WUHU216HW,2013-01-25 02:21:00,
2013-01-24 19:26:00,38.3,19.8,30.03,West,270,3.6,3.8,47,0.00,,,0.00,WUHU216HW,2013-01-25 02:26:00,
2013-01-24 19:31:00,38.2,19.6,30.02,WSW,248,4.0,4.0,47,0.00,,,0.00,WUHU216HW,2013-01-25 02:31:00,
2013-01-24 19:36:00,38.0,20.0,30.03,West,270,3.4,4.0,48,0.00,,,0.00,WUHU216HW,2013-01-25 02:36:00,
2013-01-24 19:41:00,37.8,19.8,30.02,West,270,1.8,4.0,48,0.00,,,0.00,WUHU216HW,2013-01-25 02:41:00,
2013-01-24 19:46:00,37.6,19.6,30.03,WSW,248,0.4,3.6,48,0.00,,,0.00,WUHU216HW,2013-01-25 02:46:00,
2013-01-24 19:51:00,37.3,19.4,30.03,ENE,68,1.6,2.0,48,0.00,,,0.00,WUHU216HW,2013-01-25 02:51:00,
2013-01-24 19:56:00,36.7,19.4,30.03,NE,45,0.4,1.8,49,0.00,,,0.00,WUHU216HW,2013-01-25 02:56:00,
2013-01-24 20:01:00,36.4,19.0,30.03,WSW,248,2.2,2.5,49,0.00,,,0.00,WUHU216HW,2013-01-25 03:01:00,
2013-01-24 20:06:00,36.2,19.4,30.03,WSW,248,2.0,3.6,50,0.00,,,0.00,WUHU216HW,2013-01-25 03:06:00,
2013-01-24 20:11:00,35.8,19.1,30.03,WSW,248,1.8,3.6,50,0.00,,,0.00,WUHU216HW,2013-01-25 03:11:00,
2013-01-24 20:16:00,35.6,18.9,30.03,WSW,248,1.3,3.4,50,0.00,,,0.00,WUHU216HW,2013-01-25 03:16:00,
2013-01-24 20:21:00,35.3,19.0,30.03,WSW,248,1.1,3.4,51,0.00,,,0.00,WUHU216HW,2013-01-25 03:21:00,
2013-01-24 20:26:00,34.9,18.6,30.04,West,270,1.6,2.5,51,0.00,,,0.00,WUHU216HW,2013-01-25 03:26:00,
2013-01-24 20:31:00,34.6,18.7,30.03,WSW,248,0.0,2.2,52,0.00,,,0.00,WUHU216HW,2013-01-25 03:31:00,
2013-01-24 20:36:00,34.2,18.4,30.03,WSW,248,0.0,2.0,52,0.00,,,0.00,WUHU216HW,2013-01-25 03:36:00,
2013-01-24 20:41:00,33.8,18.4,30.04,NE,45,1.1,2.7,53,0.00,,,0.00,WUHU216HW,2013-01-25 03:41:00,
2013-01-24 20:46:00,33.5,18.1,30.04,NNE,23,1.1,2.7,53,0.00,,,0.00,WUHU216HW,2013-01-25 03:46:00,
2013-01-24 20:51:00,33.3,18.4,30.04,WNW,293,0.4,1.1,54,0.00,,,0.00,WUHU216HW,2013-01-25 03:51:00,
2013-01-24 20:56:00,33.1,18.2,30.04,WSW,248,0.0,1.1,54,0.00,,,0.00,WUHU216HW,2013-01-25 03:56:00,
2013-01-24 21:01:00,32.8,17.8,30.04,WSW,248,3.8,3.8,54,0.00,,,0.00,WUHU216HW,2013-01-25 04:01:00,
2013-01-24 21:06:00,32.6,18.1,30.04,SW,225,0.7,3.8,55,0.00,,,0.00,WUHU216HW,2013-01-25 04:06:00,
2013-01-24 21:11:00,32.4,18.0,30.04,SSW,203,0.0,2.9,55,0.00,,,0.00,WUHU216HW,2013-01-25 04:11:00,
2013-01-24 21:16:00,32.0,18.1,30.04,WSW,248,1.1,2.2,56,0.00,,,0.00,WUHU216HW,2013-01-25 04:16:00,
2013-01-24 21:21:00,31.9,17.5,30.04,West,270,2.5,2.5,55,0.00,,,0.00,WUHU216HW,2013-01-25 04:21:00,
2013-01-24 21:29:00,31.7,17.3,30.04,SSW,203,1.1,2.5,55,0.00,,,0.00,WUHU216HW,2013-01-25 04:29:00,
2013-01-24 21:34:00,31.3,17.4,30.04,NNW,338,1.1,1.3,56,0.00,,,0.00,WUHU216HW,2013-01-25 04:34:00,
2013-01-24 21:39:00,31.0,17.5,30.04,SSW,203,1.1,1.6,57,0.00,,,0.00,WUHU216HW,2013-01-25 04:39:00,
2013-01-24 21:44:00,30.8,17.3,30.05,SW,225,0.4,1.6,57,0.00,,,0.00,WUHU216HW,2013-01-25 04:44:00,
2013-01-24 21:50:00,30.8,17.3,30.05,WNW,293,0.9,1.8,57,0.00,,,0.00,WUHU216HW,2013-01-25 04:50:00,
2013-01-24 21:55:00,30.2,17.2,30.05,West,270,0.9,1.3,58,0.00,,,0.00,WUHU216HW,2013-01-25 04:55:00,
2013-01-24 22:00:00,30.2,17.2,30.04,West,270,0.0,1.3,58,0.00,,,0.00,WUHU216HW,2013-01-25 05:00:00,
2013-01-24 22:01:00,30.2,17.2,30.04,West,270,0.0,1.3,58,0.00,,,0.00,WUHU216HW,2013-01-25 05:01:00,
2013-01-24 22:03:00,30.1,17.0,30.04,WSW,248,2.0,2.0,58,0.00,,,0.00,WUHU216HW,2013-01-25 05:03:00,
2013-01-24 22:08:00,29.9,16.8,30.05,WSW,248,0.0,2.0,58,0.00,,,0.00,WUHU216HW,2013-01-25 05:08:00,
2013-01-24 22:13:00,29.9,16.8,30.05,WSW,248,0.9,0.9,58,0.00,,,0.00,WUHU216HW,2013-01-25 05:13:00,
2013-01-24 22:18:00,29.5,16.9,30.05,West,270,0.0,1.6,59,0.00,,,0.00,WUHU216HW,2013-01-25 05:18:00,
2013-01-24 22:23:00,29.3,16.7,30.05,West,270,1.8,1.8,59,0.00,,,0.00,WUHU216HW,2013-01-25 05:23:00,
2013-01-24 22:28:00,29.2,17.0,30.05,West,270,1.8,2.9,60,0.00,,,0.00,WUHU216HW,2013-01-25 05:28:00,
2013-01-24 22:33:00,29.2,17.0,30.05,WSW,248,0.4,2.9,60,0.00,,,0.00,WUHU216HW,2013-01-25 05:33:00,
2013-01-24 22:38:00,29.2,17.0,30.05,SW,225,0.0,1.1,60,0.00,,,0.00,WUHU216HW,2013-01-25 05:38:00,
2013-01-24 22:43:00,29.0,17.2,30.05,NNW,338,0.7,1.1,61,0.00,,,0.00,WUHU216HW,2013-01-25 05:43:00,
2013-01-24 22:48:00,28.8,17.1,30.05,West,270,1.6,1.8,61,0.00,,,0.00,WUHU216HW,2013-01-25 05:48:00,
2013-01-24 22:53:00,28.8,17.5,30.05,West,270,0.9,2.0,62,0.00,,,0.00,WUHU216HW,2013-01-25 05:53:00,
2013-01-24 22:58:00,28.6,17.3,30.05,West,270,0.4,2.0,62,0.00,,,0.00,WUHU216HW,2013-01-25 05:58:00,
2013-01-24 23:03:00,28.6,17.3,30.05,West,270,0.9,1.3,62,0.00,,,0.00,WUHU216HW,2013-01-25 06:03:00,
2013-01-24 23:08:00,28.6,17.3,30.05,West,270,1.1,1.3,62,0.00,,,0.00,WUHU216HW,2013-01-25 06:08:00,
2013-01-24 23:13:00,28.6,17.3,30.05,West,270,0.4,1.1,62,0.00,,,0.00,WUHU216HW,2013-01-25 06:13:00,
2013-01-24 23:18:00,28.6,17.3,30.05,West,270,0.4,1.1,62,0.00,,,0.00,WUHU216HW,2013-01-25 06:18:00,
2013-01-24 23:23:00,28.6,17.7,30.05,West,270,1.1,1.1,63,0.00,,,0.00,WUHU216HW,2013-01-25 06:23:00,
2013-01-24 23:28:00,28.6,18.0,30.05,SW,225,0.7,1.3,64,0.00,,,0.00,WUHU216HW,2013-01-25 06:28:00,
2013-01-24 23:33:00,28.8,18.2,30.05,SSW,203,0.4,1.8,64,0.00,,,0.00,WUHU216HW,2013-01-25 06:33:00,
2013-01-24 23:38:00,28.8,18.2,30.05,SSE,158,0.2,1.8,64,0.00,,,0.00,WUHU216HW,2013-01-25 06:38:00,
2013-01-24 23:43:00,28.8,18.2,30.05,SSE,158,0.9,1.3,64,0.00,,,0.00,WUHU216HW,2013-01-25 06:43:00,
2013-01-24 23:48:00,28.8,18.2,30.05,SSW,203,0.4,1.1,64,0.00,,,0.00,WUHU216HW,2013-01-25 06:48:00,
2013-01-24 23:53:00,28.8,18.2,30.05,WSW,248,0.9,1.3,64,0.00,,,0.00,WUHU216HW,2013-01-25 06:53:00,
2013-01-24 23:58:00,28.8,18.2,30.05,WSW,248,0.0,1.3,64,0.00,,,0.00,WUHU216HW,2013-01-25 06:58:00,